Time;durP1;ratioP1;P1;durP2;ratioP2;P2;SDS_P1;SDS_P2;PMS_P1;PMS_P2;Temp;Humidity;BMP_temperature;BMP_pressure;BME280_temperature;BME280_humidity;BME280_pressure;Samples;Min_cycle;Max_cycle;Signal;HPM_P1;HPM_P2
2022/03/18 00:00:54;;;;;;;44.03;28.83;;;;;;;;;;5094650;28;20024;-66
2022/03/18 00:03:20;;;;;;;40.92;28.42;;;;;;;;;;5094592;28;20024;-66
2022/03/18 00:05:48;;;;;;;74.97;43.25;;;;;;;;;;5094530;28;20069;-66
2022/03/18 00:08:15;;;;;;;51.72;31.52;;;;;;;;;;5094734;28;20047;-66
2022/03/18 00:10:41;;;;;;;50.53;31.75;;;;;;;;;;5094285;28;20513;-65
2022/03/18 00:13:07;;;;;;;51.75;32.88;;;205.30;2252.80;;;;;;5094486;28;20032;-66
2022/03/18 00:15:33;;;;;;;49.63;30.67;;;205.20;2252.80;;;;;;5094738;28;20020;-65
2022/03/18 00:17:58;;;;;;;62.60;40.00;;;205.20;2252.80;;;;;;5094833;28;20027;-66
2022/03/18 00:20:25;;;;;;;60.55;36.67;;;205.20;2252.80;;;;;;5094101;28;20372;-67
2022/03/18 00:22:51;;;;;;;51.75;32.72;;;205.30;2252.80;;;;;;5094078;28;20032;-66
2022/03/18 00:25:18;;;;;;;47.60;32.90;;;205.40;2252.80;;;;;;5094183;28;20061;-66
2022/03/18 00:27:46;;;;;;;50.67;31.90;;;;;;;;;;5094005;28;20028;-65
2022/03/18 00:30:12;;;;;;;52.10;35.10;;;;;;;;;;5094134;28;20386;-67
2022/03/18 00:32:39;;;;;;;56.88;35.88;;;;;;;;;;5094030;28;20028;-65
2022/03/18 00:35:07;;;;;;;57.95;36.67;;;;;;;;;;5093845;28;20030;-66
2022/03/18 00:37:34;;;;;;;58.67;37.63;;;;;;;;;;5093753;28;20062;-67
2022/03/18 00:40:00;;;;;;;50.20;35.53;;;205.20;2252.80;;;;;;5093955;28;20024;-67
2022/03/18 00:42:26;;;;;;;55.13;38.58;;;;;;;;;;5094233;28;20039;-68
2022/03/18 00:44:52;;;;;;;58.53;38.17;;;;;;;;;;5093676;28;20024;-65
2022/03/18 00:52:48;;;;;;;91.78;59.28;;;;;;;;;;5094375;28;20081;-65
2022/03/18 00:55:15;;;;;;;97.38;61.95;;;;;;;;;;5093782;28;20380;-66
2022/03/18 00:57:41;;;;;;;93.32;59.03;;;;;;;;;;5093838;28;20066;-65
2022/03/18 01:00:07;;;;;;;81.18;53.03;;;;;;;;;;5093519;28;20028;-67
2022/03/18 01:02:33;;;;;;;140.05;93.85;;;;;;;;;;5093487;28;20028;-66
2022/03/18 01:04:59;;;;;;;159.35;106.38;;;;;;;;;;5093696;28;20032;-66
2022/03/18 01:07:25;;;;;;;206.40;141.82;;;;;;;;;;5093800;28;20458;-69
2022/03/18 01:09:51;;;;;;;91.80;57.42;;;;;;;;;;5093288;28;20043;-66
2022/03/18 01:12:18;;;;;;;78.93;49.38;;;;;;;;;;5093569;28;20027;-66
2022/03/18 01:14:44;;;;;;;73.72;43.80;;;;;;;;;;5093366;28;20024;-66
2022/03/18 01:17:10;;;;;;;56.72;35.63;;;205.10;2252.80;;;;;;5093210;28;20027;-66
2022/03/18 01:19:36;;;;;;;47.50;34.38;;;205.20;2252.80;;;;;;5091539;28;20032;-66
2022/03/18 01:22:01;;;;;;;52.05;33.33;;;205.20;2252.80;;;;;;5093352;28;20382;-66
2022/03/18 01:24:27;;;;;;;65.35;43.15;;;205.30;2252.80;;;;;;5093230;28;20066;-66
2022/03/18 01:26:53;;;;;;;67.50;48.38;;;;;;;;;;5093016;28;20031;-65
2022/03/18 01:29:19;;;;;;;58.47;41.10;;;;;;;;;;5093437;28;20028;-67
2022/03/18 01:31:45;;;;;;;54.67;37.85;;;205.20;2252.80;;;;;;5092833;28;20113;-71
2022/03/18 01:34:11;;;;;;;48.55;34.38;;;205.30;2252.80;;;;;;5093210;28;20067;-66
2022/03/18 01:36:36;;;;;;;45.95;31.08;;;205.30;2252.80;;;;;;5092783;28;20036;-69
2022/03/18 01:39:03;;;;;;;48.70;31.75;;;205.00;2252.80;;;;;;5093086;28;20036;-66
2022/03/18 01:41:29;;;;;;;47.47;31.13;;;205.00;2252.80;;;;;;5093001;28;20024;-66
2022/03/18 01:43:55;;;;;;;50.95;33.17;;;205.00;2252.80;;;;;;5092968;28;20467;-66
2022/03/18 01:46:21;;;;;;;53.88;33.92;;;205.10;2252.80;;;;;;5092828;28;20056;-67
2022/03/18 01:48:48;;;;;;;48.25;32.40;;;205.00;2252.80;;;;;;5092881;28;20028;-66
2022/03/18 01:51:17;;;;;;;67.60;44.72;;;;;;;;;;5092893;28;20108;-68
2022/03/18 01:53:44;;;;;;;78.93;48.50;;;;;;;;;;5092972;28;20398;-66
2022/03/18 01:56:11;;;;;;;83.75;55.22;;;;;;;;;;5092695;28;20459;-70
2022/03/18 01:58:37;;;;;;;89.38;55.53;;;;;;;;;;5092781;28;20039;-65
2022/03/18 02:01:04;;;;;;;90.65;60.10;;;;;;;;;;5095289;28;20364;-65
2022/03/18 02:03:30;;;;;;;103.63;72.50;;;;;;;;;;5096962;28;20103;-65
2022/03/18 02:05:57;;;;;;;82.07;53.58;;;;;;;;;;5096786;28;20063;-66
2022/03/18 02:08:24;;;;;;;90.07;63.90;;;;;;;;;;5096744;28;20029;-65
2022/03/18 02:10:50;;;;;;;119.82;106.75;;;;;;;;;;5096885;28;20395;-65
2022/03/18 02:13:16;;;;;;;96.38;64.00;;;;;;;;;;5096725;28;20032;-65
2022/03/18 02:15:42;;;;;;;112.80;76.18;;;;;;;;;;5096572;28;20048;-66
2022/03/18 02:18:08;;;;;;;103.43;67.20;;;;;;;;;;5096504;28;20088;-66
2022/03/18 02:20:35;;;;;;;111.82;72.05;;;;;;;;;;5096477;28;20027;-68
2022/03/18 02:23:04;;;;;;;111.07;76.05;;;;;;;;;;5096946;28;20028;-66
2022/03/18 02:25:30;;;;;;;118.80;78.95;;;;;;;;;;5096422;28;20383;-65
2022/03/18 02:28:05;;;;;;;103.28;69.28;;;;;;;;;;5096249;28;20169;-65
2022/03/18 02:30:34;;;;;;;90.68;57.58;;;;;;;;;;5096286;28;20020;-65
2022/03/18 02:33:00;;;;;;;98.55;58.58;;;;;;;;;;5096501;28;20036;-67
2022/03/18 02:35:28;;;;;;;98.30;60.55;;;;;;;;;;5096571;28;20085;-65
2022/03/18 02:37:54;;;;;;;103.57;67.15;;;;;;;;;;5095843;28;20447;-70
2022/03/18 02:40:20;;;;;;;99.80;64.80;;;;;;;;;;5096246;28;20024;-65
2022/03/18 02:42:46;;;;;;;119.57;77.43;;;;;;;;;;5096101;28;20016;-65
2022/03/18 02:45:12;;;;;;;115.25;71.97;;;;;;;;;;5095892;28;20471;-66
2022/03/18 02:47:38;;;;;;;82.18;51.15;;;;;;;;;;5096315;28;20024;-65
2022/03/18 02:50:06;;;;;;;66.43;45.72;;;;;;;;;;5095979;28;20028;-65
2022/03/18 02:52:32;;;;;;;73.95;46.58;;;;;;;;;;5096370;28;20024;-65
2022/03/18 02:54:58;;;;;;;76.93;49.30;;;;;;;;;;5094601;28;20473;-67
2022/03/18 02:57:24;;;;;;;75.65;48.63;;;;;;;;;;5095922;28;20027;-65
2022/03/18 02:59:50;;;;;;;69.47;44.65;;;;;;;;;;5095864;28;20453;-65
2022/03/18 03:02:16;;;;;;;73.07;45.40;;;;;;;;;;5095744;28;20020;-65
2022/03/18 03:10:12;;;;;;;65.93;45.53;;;;;;;;;;5095969;28;20123;-64
2022/03/18 03:12:39;;;;;;;71.53;46.35;;;;;;;;;;5094608;28;20024;-67
2022/03/18 03:15:05;;;;;;;75.18;47.03;;;;;;;;;;5094284;28;20062;-66
2022/03/18 03:17:31;;;;;;;94.07;54.90;;;;;;;;;;5095544;28;20024;-66
2022/03/18 03:19:58;;;;;;;94.03;58.35;;;;;;;;;;5095848;28;20046;-66
2022/03/18 03:22:24;;;;;;;107.60;62.72;;;179.20;2252.80;;;;;;5095517;28;20073;-66
2022/03/18 03:24:50;;;;;;;121.60;67.07;;;;;;;;;;5095467;28;20103;-65
2022/03/18 03:27:16;;;;;;;111.20;62.95;;;;;;;;;;5095440;28;20032;-68
2022/03/18 03:29:42;;;;;;;111.53;64.65;;;179.30;2252.80;;;;;;5094035;28;20391;-65
2022/03/18 03:32:08;;;;;;;98.43;60.50;;;179.30;2252.80;;;;;;5095658;28;20039;-67
2022/03/18 03:34:35;;;;;;;114.95;64.82;;;179.20;2252.80;;;;;;5095446;28;20031;-70
2022/03/18 03:37:01;;;;;;;117.53;65.43;;;179.30;2252.80;;;;;;5094696;28;20047;-66
2022/03/18 03:39:26;;;;;;;126.55;66.70;;;179.20;2252.80;;;;;;5093744;28;20119;-67
2022/03/18 03:41:52;;;;;;;119.60;68.20;;;154.30;2252.80;;;;;;5094833;28;20043;-65
2022/03/18 03:44:19;;;;;;;122.68;64.65;;;;;;;;;;5094961;28;20459;-67
2022/03/18 03:46:45;;;;;;;103.88;60.35;;;;;;;;;;5094932;28;20020;-66
2022/03/18 03:49:11;;;;;;;91.57;56.88;;;;;;;;;;5094860;28;20123;-66
2022/03/18 03:51:37;;;;;;;90.70;55.30;;;;;;;;;;5094994;28;20046;-68
2022/03/18 03:54:03;;;;;;;94.72;56.45;;;;;;;;;;5094715;28;20016;-65
2022/03/18 03:56:29;;;;;;;87.28;55.80;;;;;;;;;;5094572;28;20046;-67
2022/03/18 03:58:55;;;;;;;84.60;52.90;;;;;;;;;;5095054;28;20020;-67
2022/03/18 04:01:21;;;;;;;77.65;50.60;;;;;;;;;;5093366;28;20020;-65
2022/03/18 04:03:47;;;;;;;82.97;51.72;;;;;;;;;;5094579;28;20032;-66
2022/03/18 04:06:15;;;;;;;79.68;51.55;;;;;;;;;;5094546;28;20024;-65
2022/03/18 04:08:41;;;;;;;79.93;50.35;;;;;;;;;;5094507;28;20399;-66
2022/03/18 04:11:07;;;;;;;83.68;52.38;;;;;;;;;;5094390;28;20023;-65
2022/03/18 04:13:33;;;;;;;87.15;53.95;;;;;;;;;;5094641;28;20016;-67
2022/03/18 04:16:00;;;;;;;90.03;54.03;;;;;;;;;;5094290;28;20023;-66
2022/03/18 04:18:26;;;;;;;80.57;49.63;;;;;;;;;;5094304;28;20027;-65
2022/03/18 04:20:52;;;;;;;74.38;47.90;;;;;;;;;;5094269;28;20063;-67
2022/03/18 04:23:18;;;;;;;77.13;49.60;;;;;;;;;;5094338;28;20071;-66
2022/03/18 04:25:44;;;;;;;75.25;47.75;;;;;;;;;;5094384;28;20025;-68
2022/03/18 04:28:11;;;;;;;70.63;45.38;;;;;;;;;;5094165;28;20107;-66
2022/03/18 04:30:37;;;;;;;69.35;45.15;;;;;;;;;;5094082;28;20058;-71
2022/03/18 04:33:03;;;;;;;70.65;43.53;;;;;;;;;;5094237;28;20028;-68
2022/03/18 04:35:32;;;;;;;63.25;40.28;;;;;;;;;;5094114;28;20391;-65
2022/03/18 04:37:58;;;;;;;54.28;38.30;;;;;;;;;;5093879;28;20047;-66
2022/03/18 04:40:24;;;;;;;68.13;42.47;;;;;;;;;;5093927;28;20048;-71
2022/03/18 04:42:50;;;;;;;73.82;44.15;;;;;;;;;;5094180;28;20036;-65
2022/03/18 04:45:16;;;;;;;72.05;44.92;;;;;;;;;;5094126;28;20484;-65
2022/03/18 04:47:42;;;;;;;93.03;56.83;;;;;;;;;;5093685;28;20395;-68
2022/03/18 04:50:09;;;;;;;87.63;53.67;;;;;;;;;;5093814;28;20108;-65
2022/03/18 04:52:35;;;;;;;81.55;48.03;;;;;;;;;;5093868;28;20020;-65
2022/03/18 04:55:02;;;;;;;80.63;51.03;;;;;;;;;;5093544;28;20056;-66
2022/03/18 04:57:28;;;;;;;89.47;56.15;;;;;;;;;;5093960;28;20449;-68
2022/03/18 04:59:56;;;;;;;97.90;61.72;;;;;;;;;;5093618;28;20031;-66
2022/03/18 05:02:22;;;;;;;97.53;63.63;;;128.90;2252.80;;;;;;5093842;28;20036;-66
2022/03/18 05:04:48;;;;;;;97.00;60.92;;;128.90;2252.80;;;;;;5093643;28;20032;-71
2022/03/18 05:07:15;;;;;;;106.57;65.28;;;;;;;;;;5093372;28;20020;-71
2022/03/18 05:09:42;;;;;;;104.85;66.15;;;;;;;;;;5093493;28;20095;-65
2022/03/18 05:12:09;;;;;;;98.40;61.40;;;;;;;;;;5093575;28;20067;-65
2022/03/18 05:14:35;;;;;;;94.28;59.88;;;;;;;;;;5093463;28;20128;-65
2022/03/18 05:17:02;;;;;;;108.30;64.80;;;;;;;;;;5093222;28;20032;-65
2022/03/18 05:19:28;;;;;;;95.47;62.65;;;;;;;;;;5093274;28;20243;-65
2022/03/18 05:21:55;;;;;;;101.65;65.28;;;;;;;;;;5093293;28;20022;-66
2022/03/18 05:24:21;;;;;;;108.18;69.50;;;;;;;;;;5093189;28;20028;-67
2022/03/18 05:26:47;;;;;;;106.53;70.22;;;;;;;;;;5093096;28;20024;-69
2022/03/18 05:29:14;;;;;;;116.82;74.10;;;;;;;;;;5092880;28;20119;-65
2022/03/18 05:31:41;;;;;;;119.38;78.93;;;;;;;;;;5093049;28;20020;-65
2022/03/18 05:34:07;;;;;;;126.40;83.88;;;;;;;;;;5093049;28;20126;-66
2022/03/18 05:36:33;;;;;;;137.63;91.78;;;;;;;;;;5092354;28;20036;-68
2022/03/18 05:38:59;;;;;;;142.20;96.22;;;;;;;;;;5092873;28;20032;-65
2022/03/18 05:41:25;;;;;;;135.88;88.78;;;;;;;;;;5092883;28;20028;-65
2022/03/18 05:43:51;;;;;;;134.10;89.05;;;;;;;;;;5092743;28;20024;-65
2022/03/18 05:46:17;;;;;;;123.03;81.45;;;;;;;;;;5093216;28;20454;-65
2022/03/18 05:48:43;;;;;;;112.75;72.10;;;;;;;;;;5093065;28;20043;-65
2022/03/18 05:51:09;;;;;;;91.60;60.15;;;;;;;;;;5091492;28;20067;-65
2022/03/18 05:53:36;;;;;;;92.72;58.30;;;;;;;;;;5092910;28;20020;-65
2022/03/18 05:58:47;;;;;;;90.20;58.20;;;;;;;;;;5093179;28;20058;-65
2022/03/18 06:01:13;;;;;;;93.60;56.50;;;;;;;;;;5092837;28;20020;-65
2022/03/18 06:03:40;;;;;;;83.35;57.08;;;;;;;;;;5092841;28;20024;-68
2022/03/18 06:06:07;;;;;;;82.60;52.85;;;;;;;;;;5092558;28;20493;-65
2022/03/18 06:14:02;;;;;;;72.55;50.47;;;;;;;;;;5092706;28;20031;-65
2022/03/18 06:16:28;;;;;;;79.07;51.92;;;;;;;;;;5092778;28;20063;-66
2022/03/18 06:18:54;;;;;;;78.03;50.95;;;;;;;;;;5092626;28;20028;-65
2022/03/18 06:21:23;;;;;;;83.68;51.13;;;;;;;;;;5092484;28;20024;-65
2022/03/18 06:23:50;;;;;;;78.43;53.15;;;;;;;;;;5092981;28;20066;-65
2022/03/18 06:26:16;;;;;;;91.18;56.67;;;;;;;;;;5092524;28;20063;-65
2022/03/18 06:28:42;;;;;;;93.10;52.35;;;;;;;;;;5092343;28;20111;-65
2022/03/18 06:31:09;;;;;;;89.20;54.20;;;;;;;;;;5092580;28;20020;-66
2022/03/18 06:33:41;;;;;;;80.28;51.25;;;;;;;;;;5092756;28;20393;-66
2022/03/18 06:36:08;;;;;;;96.50;59.83;;;;;;;;;;5092480;28;20098;-66
2022/03/18 06:38:34;;;;;;;95.95;62.55;;;;;;;;;;5092276;28;20424;-67
2022/03/18 06:41:00;;;;;;;99.80;56.85;;;;;;;;;;5092291;28;20020;-67
2022/03/18 06:43:26;;;;;;;68.60;41.00;;;;;;;;;;5092256;28;20024;-65
2022/03/18 06:45:52;;;;;;;68.78;34.47;;;;;;;;;;5092309;28;20052;-65
2022/03/18 06:48:18;;;;;;;50.13;31.92;;;;;;;;;;5095043;28;20039;-65
2022/03/18 06:50:44;;;;;;;52.05;31.65;;;;;;;;;;5096558;28;20028;-66
2022/03/18 06:53:10;;;;;;;89.55;50.92;;;;;;;;;;5095809;28;20046;-65
2022/03/18 06:55:36;;;;;;;54.22;33.97;;;;;;;;;;5095831;28;20020;-65
2022/03/18 06:58:02;;;;;;;50.80;32.95;;;;;;;;;;5094401;28;20114;-65
2022/03/18 07:00:28;;;;;;;61.42;39.70;;;;;;;;;;5096022;28;20099;-65
2022/03/18 07:02:54;;;;;;;55.25;31.90;;;;;;;;;;5095810;28;20024;-65
2022/03/18 07:05:20;;;;;;;53.30;31.48;;;;;;;;;;5095559;28;20095;-65
2022/03/18 07:07:48;;;;;;;49.45;33.22;;;;;;;;;;5095804;28;20482;-65
2022/03/18 07:10:14;;;;;;;47.95;32.20;;;;;;;;;;5093924;28;20051;-65
2022/03/18 07:12:40;;;;;;;70.53;40.53;;;;;;;;;;5095407;28;20031;-65
2022/03/18 07:15:07;;;;;;;63.03;32.63;;;;;;;;;;5095467;28;20493;-65
2022/03/18 07:20:18;;;;;;;49.45;32.20;;;;;;;;;;5095368;28;20043;-65
2022/03/18 07:22:44;;;;;;;47.60;28.85;;;;;;;;;;5095357;28;20535;-65
2022/03/18 07:25:11;;;;;;;71.85;32.63;;;230.40;2252.80;;;;;;5095337;28;20039;-65
2022/03/18 07:27:36;;;;;;;54.10;34.47;;;230.40;2252.80;;;;;;5095469;28;20097;-65
2022/03/18 07:30:06;;;;;;;47.35;30.42;;;230.50;2252.80;;;;;;5095457;28;20501;-65
2022/03/18 07:32:32;;;;;;;65.35;36.35;;;;;;;;;;5095275;28;20016;-65
2022/03/18 07:34:58;;;;;;;53.80;35.70;;;;;;;;;;5095291;28;20051;-65
2022/03/18 07:37:26;;;;;;;75.70;53.17;;;;;;;;;;5094909;28;20044;-65
2022/03/18 07:39:52;;;;;;;57.60;35.30;;;;;;;;;;5095093;28;20024;-65
2022/03/18 07:42:18;;;;;;;49.53;31.60;;;;;;;;;;5095039;28;20108;-66
2022/03/18 07:44:44;;;;;;;74.00;41.60;;;;;;;;;;5095156;28;20077;-66
2022/03/18 07:47:11;;;;;;;68.03;38.30;;;;;;;;;;5094834;28;20016;-63
2022/03/18 07:49:36;;;;;;;49.50;33.88;;;256.10;2099.20;;;;;;5094823;28;20510;-65
2022/03/18 07:52:02;;;;;;;65.43;35.08;;;256.30;2252.80;;;;;;5094873;28;20031;-65
2022/03/18 07:54:28;;;;;;;51.50;35.22;;;256.30;2048.00;;;;;;5094647;28;20437;-66
2022/03/18 07:56:54;;;;;;;59.50;36.88;;;256.20;2073.60;;;;;;5094727;28;20051;-64
2022/03/18 07:59:19;;;;;;;57.83;36.85;;;256.30;2073.60;;;;;;5094477;28;20032;-65
2022/03/18 08:01:45;;;;;;;59.42;38.72;;;256.30;2073.60;;;;;;5094552;28;20427;-64
2022/03/18 08:04:12;;;;;;;74.65;43.80;;;256.30;2073.60;;;;;;5094953;28;20028;-65
2022/03/18 08:06:39;;;;;;;89.05;52.63;;;;;;;;;;5094434;28;20497;-65
2022/03/18 08:09:05;;;;;;;64.38;36.08;;;;;;;;;;5094445;28;20040;-65
2022/03/18 08:11:32;;;;;;;61.20;39.28;;;;;;;;;;5094769;28;20024;-65
2022/03/18 08:13:58;;;;;;;65.38;43.40;;;;;;;;;;5094135;28;20031;-67
2022/03/18 08:16:26;;;;;;;81.00;49.80;;;256.80;1996.80;;;;;;5094083;28;20498;-64
2022/03/18 08:18:51;;;;;;;54.30;33.88;;;281.70;2022.40;;;;;;5092899;28;20032;-66
2022/03/18 08:21:17;;;;;;;119.00;68.68;;;282.10;1996.80;;;;;;5094315;28;20032;-65
2022/03/18 08:23:43;;;;;;;39.35;26.98;;;282.50;1971.20;;;;;;5094404;28;20107;-66
2022/03/18 08:26:09;;;;;;;40.85;26.60;;;;;;;;;;5094084;28;20024;-64
2022/03/18 08:28:35;;;;;;;30.58;22.20;;;;;;;;;;5093862;28;20036;-64
2022/03/18 08:31:01;;;;;;;29.20;20.60;;;307.40;1894.40;;;;;;5093942;28;20027;-65
2022/03/18 08:33:27;;;;;;;29.83;21.05;;;307.50;1843.20;;;;;;5094007;28;20024;-66
2022/03/18 08:35:53;;;;;;;31.52;22.77;;;;;;;;;;5093579;28;20016;-63
2022/03/18 08:38:19;;;;;;;45.97;26.35;;;;;;;;;;5093599;28;20059;-66
2022/03/18 08:40:45;;;;;;;38.60;25.15;;;307.80;2176.00;;;;;;5093673;28;20055;-65
2022/03/18 08:43:11;;;;;;;32.88;22.88;;;307.80;1792.00;;;;;;5093694;28;20059;-64
2022/03/18 08:45:37;;;;;;;26.40;20.80;;;307.80;1792.00;;;;;;5093950;28;20020;-64
2022/03/18 08:48:04;;;;;;;40.97;21.67;;;;;;;;;;5093603;28;20077;-64
2022/03/18 08:50:31;;;;;;;27.92;18.58;;;;;;;;;;5093599;28;20031;-64
2022/03/18 08:52:58;;;;;;;25.95;17.40;;;;;;;;;;5093489;28;20111;-64
2022/03/18 08:55:24;;;;;;;35.00;17.88;;;;;;;;;;5093776;28;20373;-65
2022/03/18 08:57:51;;;;;;;25.70;16.10;;;;;;;;;;5093461;28;20107;-65
2022/03/18 09:00:18;;;;;;;21.92;13.77;;;332.90;1510.40;;;;;;5093196;28;20084;-65
2022/03/18 09:02:45;;;;;;;83.80;52.90;;;;;;;;;;5093572;28;20028;-64
2022/03/18 09:05:12;;;;;;;22.25;14.75;;;333.10;1459.20;;;;;;5093392;28;20500;-65
2022/03/18 09:07:38;;;;;;;25.70;13.95;;;;;;;;;;5091950;28;20032;-66
2022/03/18 09:10:05;;;;;;;16.27;11.02;;;;;;;;;;5092795;28;20039;-65
2022/03/18 09:12:32;;;;;;;20.30;12.65;;;;;;;;;;5091809;28;20390;-64
2022/03/18 09:14:58;;;;;;;14.65;9.80;;;;;;;;;;5093108;28;20024;-65
2022/03/18 09:17:25;;;;;;;14.52;10.52;;;;;;;;;;5093046;28;20118;-64
2022/03/18 09:19:52;;;;;;;16.90;11.07;;;;;;;;;;5093075;28;20024;-65
2022/03/18 09:22:19;;;;;;;20.58;12.75;;;333.20;1382.40;;;;;;5092867;28;20051;-66
2022/03/18 09:24:46;;;;;;;26.50;13.40;;;;;;;;;;5091726;28;20410;-65
2022/03/18 09:27:14;;;;;;;20.70;12.95;;;;;;;;;;5092984;28;20016;-64
2022/03/18 09:29:40;;;;;;;22.42;12.20;;;;;;;;;;5091419;28;20032;-65
2022/03/18 09:32:07;;;;;;;18.42;11.15;;;;;;;;;;5092967;28;20019;-66
2022/03/18 09:34:34;;;;;;;26.67;15.70;;;;;;;;;;5092854;28;20043;-67
2022/03/18 09:37:01;;;;;;;28.95;16.27;;;;;;;;;;5092586;28;20113;-65
2022/03/18 09:39:27;;;;;;;21.70;13.70;;;;;;;;;;5092801;28;20025;-67
2022/03/18 09:41:55;;;;;;;22.25;14.98;;;358.50;1305.60;;;;;;5093041;28;20052;-67
2022/03/18 09:44:21;;;;;;;24.52;13.50;;;;;;;;;;5093052;28;20417;-67
2022/03/18 09:46:48;;;;;;;15.07;11.80;;;;;;;;;;5092757;28;20020;-66
2022/03/18 09:49:15;;;;;;;17.35;11.35;;;384.30;1228.80;;;;;;5092687;28;20097;-66
2022/03/18 09:51:42;;;;;;;23.00;13.98;;;;;;;;;;5092647;28;20050;-67
2022/03/18 09:54:09;;;;;;;19.08;12.50;;;409.70;1203.20;;;;;;5092763;28;20578;-66
2022/03/18 09:56:35;;;;;;;22.40;14.02;;;;;;;;;;5092925;28;20047;-66
2022/03/18 09:59:02;;;;;;;19.35;12.07;;;410.40;1152.00;;;;;;5092447;28;20028;-65
2022/03/18 10:01:27;;;;;;;16.35;12.68;;;435.90;1126.40;;;;;;5092816;28;20103;-64
2022/03/18 10:03:54;;;;;;;14.55;10.23;;;;;;;;;;5092811;28;20051;-64
2022/03/18 10:06:27;;;;;;;23.13;13.73;;;;;;;;;;5092633;28;20036;-66
2022/03/18 10:08:54;;;;;;;16.20;11.15;;;461.00;1100.80;;;;;;5092626;28;20043;-65
2022/03/18 10:11:23;;;;;;;17.38;13.15;;;;;;;;;;5092474;28;20012;-65
2022/03/18 10:13:55;;;;;;;26.73;15.73;;;435.70;1100.80;;;;;;5092467;28;20032;-65
2022/03/18 10:16:38;;;;;;;22.13;13.30;;;435.60;1100.80;;;;;;5092566;28;20016;-65
2022/03/18 10:19:08;;;;;;;15.07;9.68;;;;;;;;;;5092514;28;20036;-64
2022/03/18 10:21:54;;;;;;;17.48;13.05;;;460.90;1075.20;;;;;;5094610;28;20058;-67
2022/03/18 10:24:38;;;;;;;15.93;9.50;;;461.10;1049.60;;;;;;5096482;28;20063;-65
2022/03/18 10:27:19;;;;;;;11.60;9.05;;;460.80;1075.20;;;;;;5096343;28;20016;-67
2022/03/18 10:29:46;;;;;;;15.25;10.30;;;;;;;;;;5096327;28;20032;-64
2022/03/18 10:32:13;;;;;;;21.40;11.55;;;436.00;1049.60;;;;;;5096398;28;20024;-65
2022/03/18 10:37:26;;;;;;;12.35;9.43;;;;;;;;;;5096008;28;20044;-65
2022/03/18 10:40:01;;;;;;;25.15;16.23;;;;;;;;;;5096011;28;20032;-65
2022/03/18 10:42:27;;;;;;;13.00;10.45;;;435.50;1049.60;;;;;;5096257;28;20039;-65
2022/03/18 10:44:54;;;;;;;19.83;13.25;;;;;;;;;;5095661;28;20020;-64
2022/03/18 10:47:40;;;;;;;17.35;12.57;;;435.40;1075.20;;;;;;5095931;28;20036;-64
2022/03/18 10:50:14;;;;;;;23.02;13.90;;;;;;;;;;5096189;28;20387;-66
2022/03/18 10:52:46;;;;;;;20.00;13.02;;;;;;;;;;5095952;28;20017;-65
2022/03/18 10:55:16;;;;;;;11.68;9.50;;;;;;;;;;5095683;28;20520;-64
2022/03/18 10:57:50;;;;;;;13.93;10.55;;;460.80;1024.00;;;;;;5095842;28;20023;-65
2022/03/18 11:00:17;;;;;;;22.35;14.57;;;;;;;;;;5095543;28;20376;-64
2022/03/18 11:02:45;;;;;;;22.90;15.68;;;;;;;;;;5095686;28;20428;-64
2022/03/18 11:05:12;;;;;;;20.13;12.30;;;;;;;;;;5095398;28;20383;-64
2022/03/18 11:07:43;;;;;;;18.65;12.45;;;487.20;947.20;;;;;;5095962;28;20031;-64
2022/03/18 11:13:02;;;;;;;29.88;18.13;;;487.20;921.60;;;;;;5095838;28;20046;-64
2022/03/18 11:15:30;;;;;;;26.08;16.90;;;;;;;;;;5095882;28;20044;-64
2022/03/18 11:17:57;;;;;;;25.92;15.45;;;;;;;;;;5095520;28;20032;-65
2022/03/18 11:20:27;;;;;;;27.42;14.90;;;461.70;972.80;;;;;;5095320;28;20035;-64
2022/03/18 11:22:52;;;;;;;23.40;14.27;;;461.70;998.40;;;;;;5095457;28;20023;-65
2022/03/18 11:25:20;;;;;;;22.63;15.32;;;486.40;972.80;;;;;;5095287;28;20478;-65
2022/03/18 11:27:47;;;;;;;16.70;11.43;;;461.70;947.20;;;;;;5095325;28;20026;-64
2022/03/18 11:30:34;;;;;;;22.15;12.65;;;461.50;972.80;;;;;;5094894;28;20102;-65
2022/03/18 11:33:06;;;;;;;33.25;12.85;;;461.60;947.20;;;;;;5094448;28;20031;-65
2022/03/18 11:35:50;;;;;;;16.08;11.13;;;461.40;947.20;;;;;;5093622;28;20391;-65
2022/03/18 11:38:30;;;;;;;19.15;10.50;;;486.40;947.20;;;;;;5095058;28;20052;-65
2022/03/18 11:41:05;;;;;;;17.50;14.20;;;461.50;947.20;;;;;;5093781;28;20016;-65
2022/03/18 11:43:47;;;;;;;17.70;10.40;;;461.70;947.20;;;;;;5094947;28;20103;-65
2022/03/18 11:46:13;;;;;;;24.55;11.10;;;486.40;921.60;;;;;;5094901;28;20020;-64
2022/03/18 11:48:49;;;;;;;32.30;16.88;;;486.50;921.60;;;;;;5094830;28;20036;-64
2022/03/18 11:51:28;;;;;;;66.10;37.75;;;486.70;921.60;;;;;;5094856;28;20513;-63
2022/03/18 11:53:56;;;;;;;22.67;13.30;;;486.70;896.00;;;;;;5094986;28;20478;-66
2022/03/18 11:56:47;;;;;;;27.95;13.10;;;486.80;896.00;;;;;;5094802;28;20103;-64
2022/03/18 11:59:25;;;;;;;14.77;10.20;;;486.60;921.60;;;;;;5094633;28;20016;-65
2022/03/18 12:01:57;;;;;;;22.48;13.95;;;486.50;921.60;;;;;;5094426;28;20047;-64
2022/03/18 12:04:39;;;;;;;26.70;14.93;;;;;;;;;;5094562;28;20031;-65
2022/03/18 12:07:18;;;;;;;37.72;23.20;;;;;;;;;;5093186;28;20480;-66
2022/03/18 12:09:50;;;;;;;23.75;13.15;;;486.40;921.60;;;;;;5093025;28;20051;-64
2022/03/18 12:12:18;;;;;;;19.33;12.13;;;;;;;;;;5094143;28;20016;-65
2022/03/18 12:14:44;;;;;;;20.45;13.40;;;461.50;921.60;;;;;;5094324;28;20027;-66
2022/03/18 12:17:10;;;;;;;12.80;9.63;;;461.20;921.60;;;;;;5094667;28;20424;-65
2022/03/18 12:19:39;;;;;;;21.42;11.60;;;;;;;;;;5094011;28;20020;-64
2022/03/18 12:22:06;;;;;;;28.38;20.55;;;;;;;;;;5094045;28;20578;-65
2022/03/18 12:24:32;;;;;;;16.08;12.27;;;;;;;;;;5094044;28;20060;-66
2022/03/18 12:27:02;;;;;;;13.20;11.10;;;;;;;;;;5094083;28;20020;-64
2022/03/18 12:29:29;;;;;;;16.08;11.07;;;;;;;;;;5093880;28;20032;-67
2022/03/18 12:32:06;;;;;;;18.27;13.70;;;461.20;947.20;;;;;;5094029;28;20016;-65
2022/03/18 12:34:54;;;;;;;18.77;12.85;;;461.20;947.20;;;;;;5093788;28;20390;-65
2022/03/18 12:37:22;;;;;;;17.20;11.98;;;;;;;;;;5093500;28;20111;-65
2022/03/18 12:40:00;;;;;;;16.33;11.23;;;;;;;;;;5093421;28;20403;-64
2022/03/18 12:42:26;;;;;;;37.17;19.65;;;;;;;;;;5092417;28;20378;-65
2022/03/18 12:44:59;;;;;;;19.15;12.43;;;;;;;;;;5092818;28;20441;-65
2022/03/18 12:47:32;;;;;;;14.50;9.65;;;;;;;;;;5093578;28;20086;-65
2022/03/18 12:50:00;;;;;;;11.25;9.05;;;;;;;;;;5093715;28;20044;-66
2022/03/18 12:52:26;;;;;;;16.38;10.82;;;;;;;;;;5092132;28;20479;-65
2022/03/18 12:55:12;;;;;;;12.40;9.07;;;;;;;;;;5093414;28;20107;-65
2022/03/18 12:57:43;;;;;;;15.02;10.32;;;;;;;;;;5093721;28;20146;-64
2022/03/18 13:00:11;;;;;;;13.60;10.45;;;;;;;;;;5093365;28;20051;-63
2022/03/18 13:02:41;;;;;;;28.17;17.35;;;461.00;947.20;;;;;;5093238;28;20546;-65
2022/03/18 13:05:07;;;;;;;20.98;10.80;;;;;;;;;;5093425;28;20032;-65
2022/03/18 13:07:36;;;;;;;21.63;11.35;;;;;;;;;;5093479;28;20444;-65
2022/03/18 13:10:03;;;;;;;13.10;9.73;;;;;;;;;;5093390;28;20036;-67
2022/03/18 13:12:36;;;;;;;20.25;12.15;;;435.60;921.60;;;;;;5093186;28;20056;-64
2022/03/18 13:15:20;;;;;;;35.33;19.65;;;435.40;921.60;;;;;;5093348;28;20107;-64
2022/03/18 13:17:47;;;;;;;15.82;10.45;;;;;;;;;;5093094;28;20518;-64
2022/03/18 13:20:26;;;;;;;19.92;11.85;;;;;;;;;;5093078;28;20072;-65
2022/03/18 13:22:56;;;;;;;57.45;36.00;;;;;;;;;;5093537;28;20024;-66
2022/03/18 13:25:23;;;;;;;17.23;11.82;;;;;;;;;;5093428;28;20020;-64
2022/03/18 13:27:50;;;;;;;16.48;10.13;;;;;;;;;;5093410;28;20028;-65
2022/03/18 13:33:05;;;;;;;29.42;13.85;;;410.20;947.20;;;;;;5092914;28;20082;-65
2022/03/18 13:35:31;;;;;;;22.33;13.18;;;410.10;972.80;;;;;;5092732;28;20020;-65
2022/03/18 13:38:14;;;;;;;15.63;11.38;;;410.00;972.80;;;;;;5092784;28;20056;-65
2022/03/18 13:40:54;;;;;;;32.47;17.30;;;;;;;;;;5092667;28;20024;-64
2022/03/18 13:43:23;;;;;;;23.75;13.38;;;;;;;;;;5092950;28;20466;-65
2022/03/18 13:45:49;;;;;;;19.25;12.00;;;409.60;972.80;;;;;;5092826;28;20024;-65
2022/03/18 13:48:25;;;;;;;28.52;14.30;;;;;;;;;;5092877;28;20036;-64
2022/03/18 13:50:51;;;;;;;21.25;11.82;;;;;;;;;;5092853;28;20035;-65
2022/03/18 13:53:18;;;;;;;21.25;12.95;;;;;;;;;;5092631;28;20053;-64
2022/03/18 13:55:44;;;;;;;19.75;12.95;;;;;;;;;;5091792;28;20028;-65
2022/03/18 13:58:11;;;;;;;25.85;15.77;;;;;;;;;;5096834;28;20040;-64
2022/03/18 14:00:37;;;;;;;12.88;9.27;;;;;;;;;;5096689;28;20157;-64
2022/03/18 14:03:04;;;;;;;26.52;13.18;;;384.10;972.80;;;;;;5096818;28;20027;-66
2022/03/18 14:05:32;;;;;;;16.85;9.23;;;359.30;947.20;;;;;;5097123;28;20421;-64